sensor_id;sensor_type;location;lat;lon;timestamp;P1;durP1;ratioP1;P2;durP2;ratioP2
9821;SDS011;4950;46.042;14.472;2023-07-20T00:01:46;9.20;;;4.38;;
9821;SDS011;4950;46.042;14.472;2023-07-20T00:04:13;9.85;;;4.18;;
9821;SDS011;4950;46.042;14.472;2023-07-20T00:06:40;8.52;;;3.90;;
9821;SDS011;4950;46.042;14.472;2023-07-20T00:09:06;6.70;;;3.83;;
9821;SDS011;4950;46.042;14.472;2023-07-20T00:11:35;8.95;;;3.95;;
9821;SDS011;4950;46.042;14.472;2023-07-20T00:14:04;6.75;;;3.70;;
9821;SDS011;4950;46.042;14.472;2023-07-20T00:16:30;7.38;;;4.32;;
9821;SDS011;4950;46.042;14.472;2023-07-20T00:18:57;7.05;;;4.03;;
9821;SDS011;4950;46.042;14.472;2023-07-20T00:21:24;8.20;;;4.22;;
9821;SDS011;4950;46.042;14.472;2023-07-20T00:23:51;11.07;;;4.30;;
9821;SDS011;4950;46.042;14.472;2023-07-20T00:26:18;7.05;;;4.15;;
9821;SDS011;4950;46.042;14.472;2023-07-20T00:28:44;8.55;;;4.05;;
9821;SDS011;4950;46.042;14.472;2023-07-20T00:31:12;7.85;;;3.60;;
9821;SDS011;4950;46.042;14.472;2023-07-20T00:33:39;9.20;;;4.50;;
9821;SDS011;4950;46.042;14.472;2023-07-20T00:36:06;7.80;;;4.05;;
9821;SDS011;4950;46.042;14.472;2023-07-20T00:38:32;10.60;;;4.20;;
9821;SDS011;4950;46.042;14.472;2023-07-20T00:40:59;9.48;;;3.80;;
9821;SDS011;4950;46.042;14.472;2023-07-20T00:43:26;8.90;;;4.03;;
9821;SDS011;4950;46.042;14.472;2023-07-20T00:45:52;10.48;;;4.85;;
9821;SDS011;4950;46.042;14.472;2023-07-20T00:48:20;8.25;;;4.30;;
9821;SDS011;4950;46.042;14.472;2023-07-20T00:50:48;7.97;;;4.45;;
9821;SDS011;4950;46.042;14.472;2023-07-20T00:53:15;8.27;;;3.85;;
9821;SDS011;4950;46.042;14.472;2023-07-20T00:55:42;9.85;;;4.13;;
9821;SDS011;4950;46.042;14.472;2023-07-20T00:58:09;7.80;;;3.95;;
9821;SDS011;4950;46.042;14.472;2023-07-20T01:00:36;12.68;;;3.90;;
9821;SDS011;4950;46.042;14.472;2023-07-20T01:03:02;10.27;;;3.40;;
9821;SDS011;4950;46.042;14.472;2023-07-20T01:05:33;7.03;;;3.50;;
9821;SDS011;4950;46.042;14.472;2023-07-20T01:08:10;8.75;;;3.70;;
9821;SDS011;4950;46.042;14.472;2023-07-20T01:10:43;8.90;;;3.75;;
9821;SDS011;4950;46.042;14.472;2023-07-20T01:13:12;7.00;;;3.78;;
9821;SDS011;4950;46.042;14.472;2023-07-20T01:15:40;6.25;;;3.45;;
9821;SDS011;4950;46.042;14.472;2023-07-20T01:18:08;8.10;;;4.27;;
9821;SDS011;4950;46.042;14.472;2023-07-20T01:20:36;8.50;;;4.05;;
9821;SDS011;4950;46.042;14.472;2023-07-20T01:26:11;6.60;;;3.40;;
9821;SDS011;4950;46.042;14.472;2023-07-20T01:29:08;9.18;;;4.00;;
9821;SDS011;4950;46.042;14.472;2023-07-20T01:31:44;5.85;;;4.05;;
9821;SDS011;4950;46.042;14.472;2023-07-20T01:34:11;8.40;;;4.18;;
9821;SDS011;4950;46.042;14.472;2023-07-20T01:36:41;7.65;;;4.22;;
9821;SDS011;4950;46.042;14.472;2023-07-20T01:39:09;8.85;;;4.20;;
9821;SDS011;4950;46.042;14.472;2023-07-20T01:41:37;7.50;;;4.00;;
9821;SDS011;4950;46.042;14.472;2023-07-20T01:44:04;8.38;;;4.18;;
9821;SDS011;4950;46.042;14.472;2023-07-20T01:46:31;9.40;;;3.80;;
9821;SDS011;4950;46.042;14.472;2023-07-20T01:48:59;7.13;;;4.05;;
9821;SDS011;4950;46.042;14.472;2023-07-20T01:51:26;7.27;;;3.60;;
9821;SDS011;4950;46.042;14.472;2023-07-20T01:53:52;8.93;;;4.55;;
9821;SDS011;4950;46.042;14.472;2023-07-20T01:56:19;6.68;;;3.58;;
9821;SDS011;4950;46.042;14.472;2023-07-20T01:58:46;6.28;;;3.53;;
9821;SDS011;4950;46.042;14.472;2023-07-20T02:01:13;7.93;;;4.10;;
9821;SDS011;4950;46.042;14.472;2023-07-20T02:03:39;8.00;;;3.90;;
9821;SDS011;4950;46.042;14.472;2023-07-20T02:06:07;7.35;;;3.63;;
9821;SDS011;4950;46.042;14.472;2023-07-20T02:08:34;9.90;;;4.73;;
9821;SDS011;4950;46.042;14.472;2023-07-20T02:11:01;8.65;;;4.03;;
9821;SDS011;4950;46.042;14.472;2023-07-20T02:13:29;8.73;;;5.15;;
9821;SDS011;4950;46.042;14.472;2023-07-20T02:15:56;10.15;;;4.57;;
9821;SDS011;4950;46.042;14.472;2023-07-20T02:18:22;11.13;;;4.43;;
9821;SDS011;4950;46.042;14.472;2023-07-20T02:20:49;13.90;;;6.03;;
9821;SDS011;4950;46.042;14.472;2023-07-20T02:23:18;12.35;;;6.28;;
9821;SDS011;4950;46.042;14.472;2023-07-20T02:25:44;10.87;;;6.73;;
9821;SDS011;4950;46.042;14.472;2023-07-20T02:28:12;9.95;;;7.30;;
9821;SDS011;4950;46.042;14.472;2023-07-20T02:33:06;11.25;;;6.57;;
9821;SDS011;4950;46.042;14.472;2023-07-20T02:35:33;11.88;;;6.07;;
9821;SDS011;4950;46.042;14.472;2023-07-20T02:38:00;12.02;;;6.97;;
9821;SDS011;4950;46.042;14.472;2023-07-20T02:40:28;8.80;;;5.97;;
9821;SDS011;4950;46.042;14.472;2023-07-20T02:42:55;11.80;;;7.47;;
9821;SDS011;4950;46.042;14.472;2023-07-20T02:45:21;13.10;;;6.10;;
9821;SDS011;4950;46.042;14.472;2023-07-20T02:47:48;12.43;;;6.93;;
9821;SDS011;4950;46.042;14.472;2023-07-20T02:50:15;13.13;;;7.90;;
9821;SDS011;4950;46.042;14.472;2023-07-20T02:52:42;10.90;;;6.63;;
9821;SDS011;4950;46.042;14.472;2023-07-20T02:55:08;10.48;;;6.65;;
9821;SDS011;4950;46.042;14.472;2023-07-20T02:57:37;9.45;;;6.65;;
9821;SDS011;4950;46.042;14.472;2023-07-20T03:00:04;9.90;;;6.63;;
9821;SDS011;4950;46.042;14.472;2023-07-20T03:02:32;9.82;;;6.15;;
9821;SDS011;4950;46.042;14.472;2023-07-20T03:04:58;9.32;;;6.97;;
9821;SDS011;4950;46.042;14.472;2023-07-20T03:07:26;11.57;;;6.50;;
9821;SDS011;4950;46.042;14.472;2023-07-20T03:09:53;10.20;;;6.00;;
9821;SDS011;4950;46.042;14.472;2023-07-20T03:12:20;7.95;;;5.82;;
9821;SDS011;4950;46.042;14.472;2023-07-20T03:14:48;12.30;;;6.10;;
9821;SDS011;4950;46.042;14.472;2023-07-20T03:17:15;16.30;;;7.25;;
9821;SDS011;4950;46.042;14.472;2023-07-20T03:19:41;19.80;;;7.45;;
9821;SDS011;4950;46.042;14.472;2023-07-20T03:22:08;9.52;;;5.95;;
9821;SDS011;4950;46.042;14.472;2023-07-20T03:24:35;10.55;;;6.55;;
9821;SDS011;4950;46.042;14.472;2023-07-20T03:27:01;9.80;;;6.10;;
9821;SDS011;4950;46.042;14.472;2023-07-20T03:29:28;9.00;;;5.53;;
9821;SDS011;4950;46.042;14.472;2023-07-20T03:31:58;10.93;;;6.40;;
9821;SDS011;4950;46.042;14.472;2023-07-20T03:34:25;9.13;;;5.45;;
9821;SDS011;4950;46.042;14.472;2023-07-20T03:36:52;8.70;;;5.60;;
9821;SDS011;4950;46.042;14.472;2023-07-20T03:39:19;15.82;;;6.68;;
9821;SDS011;4950;46.042;14.472;2023-07-20T03:41:45;12.60;;;6.55;;
9821;SDS011;4950;46.042;14.472;2023-07-20T03:44:12;12.00;;;6.75;;
9821;SDS011;4950;46.042;14.472;2023-07-20T03:46:39;11.55;;;6.05;;
9821;SDS011;4950;46.042;14.472;2023-07-20T03:49:07;15.10;;;7.13;;
9821;SDS011;4950;46.042;14.472;2023-07-20T03:51:34;10.40;;;6.25;;
9821;SDS011;4950;46.042;14.472;2023-07-20T03:54:00;10.68;;;6.63;;
9821;SDS011;4950;46.042;14.472;2023-07-20T03:56:27;11.80;;;6.93;;
9821;SDS011;4950;46.042;14.472;2023-07-20T03:58:54;14.50;;;6.43;;
9821;SDS011;4950;46.042;14.472;2023-07-20T04:01:20;10.73;;;5.88;;
9821;SDS011;4950;46.042;14.472;2023-07-20T04:03:47;11.73;;;5.43;;
9821;SDS011;4950;46.042;14.472;2023-07-20T04:06:15;9.20;;;5.18;;
9821;SDS011;4950;46.042;14.472;2023-07-20T04:08:42;8.98;;;4.65;;
9821;SDS011;4950;46.042;14.472;2023-07-20T04:11:09;15.05;;;5.65;;
9821;SDS011;4950;46.042;14.472;2023-07-20T04:13:35;12.18;;;6.30;;
9821;SDS011;4950;46.042;14.472;2023-07-20T04:16:02;11.32;;;6.00;;
9821;SDS011;4950;46.042;14.472;2023-07-20T04:18:29;10.73;;;6.25;;
9821;SDS011;4950;46.042;14.472;2023-07-20T04:20:55;10.85;;;6.72;;
9821;SDS011;4950;46.042;14.472;2023-07-20T04:23:23;12.20;;;6.22;;
9821;SDS011;4950;46.042;14.472;2023-07-20T04:25:50;13.50;;;5.77;;
9821;SDS011;4950;46.042;14.472;2023-07-20T04:28:17;11.70;;;5.65;;
9821;SDS011;4950;46.042;14.472;2023-07-20T04:30:44;9.40;;;5.30;;
9821;SDS011;4950;46.042;14.472;2023-07-20T04:33:10;8.93;;;5.38;;
9821;SDS011;4950;46.042;14.472;2023-07-20T04:35:47;8.52;;;4.78;;
9821;SDS011;4950;46.042;14.472;2023-07-20T04:38:15;11.52;;;4.60;;
9821;SDS011;4950;46.042;14.472;2023-07-20T04:40:44;7.57;;;4.10;;
9821;SDS011;4950;46.042;14.472;2023-07-20T04:43:12;12.50;;;4.90;;
9821;SDS011;4950;46.042;14.472;2023-07-20T04:45:38;9.02;;;4.50;;
9821;SDS011;4950;46.042;14.472;2023-07-20T04:48:06;9.27;;;5.28;;
9821;SDS011;4950;46.042;14.472;2023-07-20T04:50:35;9.23;;;4.72;;
9821;SDS011;4950;46.042;14.472;2023-07-20T04:53:02;8.80;;;4.30;;
9821;SDS011;4950;46.042;14.472;2023-07-20T04:55:28;15.63;;;4.85;;
9821;SDS011;4950;46.042;14.472;2023-07-20T04:57:56;10.18;;;5.53;;
9821;SDS011;4950;46.042;14.472;2023-07-20T05:00:23;8.55;;;5.05;;
9821;SDS011;4950;46.042;14.472;2023-07-20T05:02:50;8.60;;;4.75;;
9821;SDS011;4950;46.042;14.472;2023-07-20T05:05:17;10.05;;;5.10;;
9821;SDS011;4950;46.042;14.472;2023-07-20T05:07:43;9.70;;;4.63;;
9821;SDS011;4950;46.042;14.472;2023-07-20T05:10:10;10.52;;;5.13;;
9821;SDS011;4950;46.042;14.472;2023-07-20T05:12:37;10.23;;;7.15;;
9821;SDS011;4950;46.042;14.472;2023-07-20T05:15:05;9.25;;;6.30;;
9821;SDS011;4950;46.042;14.472;2023-07-20T05:17:32;10.65;;;6.82;;
9821;SDS011;4950;46.042;14.472;2023-07-20T05:19:59;13.02;;;5.70;;
9821;SDS011;4950;46.042;14.472;2023-07-20T05:22:26;9.98;;;6.22;;
9821;SDS011;4950;46.042;14.472;2023-07-20T05:24:52;8.98;;;5.50;;
9821;SDS011;4950;46.042;14.472;2023-07-20T05:27:19;9.73;;;5.70;;
9821;SDS011;4950;46.042;14.472;2023-07-20T05:29:46;10.65;;;6.45;;
9821;SDS011;4950;46.042;14.472;2023-07-20T05:32:14;14.80;;;7.35;;
9821;SDS011;4950;46.042;14.472;2023-07-20T05:34:41;9.50;;;5.80;;
9821;SDS011;4950;46.042;14.472;2023-07-20T05:37:07;11.52;;;7.30;;
9821;SDS011;4950;46.042;14.472;2023-07-20T05:39:34;11.15;;;7.03;;
9821;SDS011;4950;46.042;14.472;2023-07-20T05:42:01;11.80;;;7.30;;
9821;SDS011;4950;46.042;14.472;2023-07-20T05:44:27;17.05;;;8.35;;
9821;SDS011;4950;46.042;14.472;2023-07-20T05:46:54;14.57;;;8.13;;
9821;SDS011;4950;46.042;14.472;2023-07-20T05:49:23;11.52;;;6.10;;
9821;SDS011;4950;46.042;14.472;2023-07-20T05:51:49;10.77;;;7.10;;
9821;SDS011;4950;46.042;14.472;2023-07-20T05:54:16;11.57;;;6.30;;
9821;SDS011;4950;46.042;14.472;2023-07-20T05:56:42;10.25;;;6.25;;
9821;SDS011;4950;46.042;14.472;2023-07-20T05:59:09;8.70;;;6.07;;
9821;SDS011;4950;46.042;14.472;2023-07-20T06:01:36;10.32;;;5.97;;
9821;SDS011;4950;46.042;14.472;2023-07-20T06:04:02;9.40;;;5.72;;
9821;SDS011;4950;46.042;14.472;2023-07-20T06:06:31;10.93;;;5.35;;
9821;SDS011;4950;46.042;14.472;2023-07-20T06:08:57;11.95;;;5.78;;
9821;SDS011;4950;46.042;14.472;2023-07-20T06:11:27;11.38;;;5.88;;
9821;SDS011;4950;46.042;14.472;2023-07-20T06:13:54;10.13;;;5.80;;
9821;SDS011;4950;46.042;14.472;2023-07-20T06:16:21;8.60;;;5.50;;
9821;SDS011;4950;46.042;14.472;2023-07-20T06:18:47;8.93;;;5.90;;
9821;SDS011;4950;46.042;14.472;2023-07-20T06:21:15;7.75;;;5.28;;
9821;SDS011;4950;46.042;14.472;2023-07-20T06:23:43;8.93;;;5.80;;
9821;SDS011;4950;46.042;14.472;2023-07-20T06:26:09;11.90;;;6.83;;
9821;SDS011;4950;46.042;14.472;2023-07-20T06:28:36;8.50;;;5.65;;
9821;SDS011;4950;46.042;14.472;2023-07-20T06:31:03;11.05;;;5.57;;
9821;SDS011;4950;46.042;14.472;2023-07-20T06:33:30;9.73;;;5.50;;
9821;SDS011;4950;46.042;14.472;2023-07-20T06:35:57;7.85;;;5.30;;
9821;SDS011;4950;46.042;14.472;2023-07-20T06:38:24;10.15;;;5.95;;
9821;SDS011;4950;46.042;14.472;2023-07-20T06:40:52;10.40;;;5.40;;
9821;SDS011;4950;46.042;14.472;2023-07-20T06:43:19;9.30;;;5.60;;
9821;SDS011;4950;46.042;14.472;2023-07-20T06:45:50;10.77;;;5.35;;
9821;SDS011;4950;46.042;14.472;2023-07-20T06:48:17;8.95;;;5.05;;
9821;SDS011;4950;46.042;14.472;2023-07-20T06:50:44;8.40;;;5.13;;
9821;SDS011;4950;46.042;14.472;2023-07-20T06:53:11;6.63;;;4.75;;
9821;SDS011;4950;46.042;14.472;2023-07-20T06:55:37;8.10;;;4.38;;
9821;SDS011;4950;46.042;14.472;2023-07-20T06:58:06;9.60;;;4.85;;
9821;SDS011;4950;46.042;14.472;2023-07-20T07:00:32;10.07;;;5.27;;
9821;SDS011;4950;46.042;14.472;2023-07-20T07:02:59;9.02;;;5.10;;
9821;SDS011;4950;46.042;14.472;2023-07-20T07:05:26;10.18;;;5.18;;
9821;SDS011;4950;46.042;14.472;2023-07-20T07:07:52;9.70;;;4.88;;
9821;SDS011;4950;46.042;14.472;2023-07-20T07:10:19;7.50;;;5.05;;
9821;SDS011;4950;46.042;14.472;2023-07-20T07:12:46;13.35;;;6.47;;
9821;SDS011;4950;46.042;14.472;2023-07-20T07:15:14;8.60;;;5.13;;
9821;SDS011;4950;46.042;14.472;2023-07-20T07:17:40;8.90;;;5.70;;
9821;SDS011;4950;46.042;14.472;2023-07-20T07:20:08;10.43;;;5.23;;
9821;SDS011;4950;46.042;14.472;2023-07-20T07:22:35;12.98;;;6.00;;
9821;SDS011;4950;46.042;14.472;2023-07-20T07:25:02;9.38;;;5.60;;
9821;SDS011;4950;46.042;14.472;2023-07-20T07:27:29;8.73;;;5.00;;
9821;SDS011;4950;46.042;14.472;2023-07-20T07:29:56;8.65;;;5.20;;
9821;SDS011;4950;46.042;14.472;2023-07-20T07:32:24;9.68;;;5.57;;
9821;SDS011;4950;46.042;14.472;2023-07-20T07:34:51;10.55;;;5.80;;
9821;SDS011;4950;46.042;14.472;2023-07-20T07:37:17;11.35;;;5.00;;
9821;SDS011;4950;46.042;14.472;2023-07-20T07:39:45;8.90;;;4.38;;
9821;SDS011;4950;46.042;14.472;2023-07-20T07:42:11;9.88;;;4.63;;
9821;SDS011;4950;46.042;14.472;2023-07-20T07:44:38;8.90;;;4.38;;
9821;SDS011;4950;46.042;14.472;2023-07-20T07:47:05;9.93;;;5.03;;
9821;SDS011;4950;46.042;14.472;2023-07-20T07:49:33;8.00;;;4.53;;
9821;SDS011;4950;46.042;14.472;2023-07-20T07:52:00;7.40;;;4.18;;
9821;SDS011;4950;46.042;14.472;2023-07-20T07:54:28;12.52;;;4.95;;
9821;SDS011;4950;46.042;14.472;2023-07-20T07:56:54;9.57;;;4.60;;
9821;SDS011;4950;46.042;14.472;2023-07-20T07:59:21;7.88;;;3.95;;
9821;SDS011;4950;46.042;14.472;2023-07-20T08:01:48;10.60;;;4.40;;
9821;SDS011;4950;46.042;14.472;2023-07-20T08:04:14;11.27;;;4.72;;
9821;SDS011;4950;46.042;14.472;2023-07-20T08:06:42;12.48;;;4.80;;
9821;SDS011;4950;46.042;14.472;2023-07-20T08:09:09;14.52;;;4.80;;
9821;SDS011;4950;46.042;14.472;2023-07-20T08:11:36;10.10;;;4.72;;
9821;SDS011;4950;46.042;14.472;2023-07-20T08:16:31;8.55;;;4.05;;
9821;SDS011;4950;46.042;14.472;2023-07-20T08:18:58;6.35;;;3.33;;
9821;SDS011;4950;46.042;14.472;2023-07-20T08:21:25;6.20;;;3.53;;
9821;SDS011;4950;46.042;14.472;2023-07-20T08:23:53;4.95;;;2.95;;
9821;SDS011;4950;46.042;14.472;2023-07-20T08:26:20;5.53;;;3.00;;
9821;SDS011;4950;46.042;14.472;2023-07-20T08:28:47;8.50;;;3.17;;
9821;SDS011;4950;46.042;14.472;2023-07-20T08:31:14;6.03;;;2.78;;
9821;SDS011;4950;46.042;14.472;2023-07-20T08:33:41;8.10;;;3.38;;
9821;SDS011;4950;46.042;14.472;2023-07-20T08:36:07;6.65;;;2.90;;
9821;SDS011;4950;46.042;14.472;2023-07-20T08:38:34;9.15;;;3.05;;
9821;SDS011;4950;46.042;14.472;2023-07-20T08:41:02;6.88;;;3.08;;
9821;SDS011;4950;46.042;14.472;2023-07-20T08:43:29;8.40;;;3.00;;
9821;SDS011;4950;46.042;14.472;2023-07-20T08:45:57;10.90;;;3.45;;
9821;SDS011;4950;46.042;14.472;2023-07-20T08:48:24;5.10;;;2.70;;
9821;SDS011;4950;46.042;14.472;2023-07-20T08:50:53;12.98;;;3.25;;
9821;SDS011;4950;46.042;14.472;2023-07-20T08:53:22;8.38;;;3.17;;
9821;SDS011;4950;46.042;14.472;2023-07-20T08:55:50;8.52;;;3.10;;
9821;SDS011;4950;46.042;14.472;2023-07-20T08:58:19;5.55;;;2.65;;
9821;SDS011;4950;46.042;14.472;2023-07-20T09:00:46;5.95;;;3.33;;
9821;SDS011;4950;46.042;14.472;2023-07-20T09:03:15;5.95;;;3.13;;
9821;SDS011;4950;46.042;14.472;2023-07-20T09:05:42;9.73;;;2.90;;
9821;SDS011;4950;46.042;14.472;2023-07-20T09:08:08;7.00;;;2.83;;
9821;SDS011;4950;46.042;14.472;2023-07-20T09:10:35;6.45;;;2.75;;
9821;SDS011;4950;46.042;14.472;2023-07-20T09:13:02;6.55;;;3.20;;
9821;SDS011;4950;46.042;14.472;2023-07-20T09:15:30;11.93;;;2.90;;
9821;SDS011;4950;46.042;14.472;2023-07-20T09:17:58;7.05;;;3.10;;
9821;SDS011;4950;46.042;14.472;2023-07-20T09:20:28;9.32;;;2.95;;
9821;SDS011;4950;46.042;14.472;2023-07-20T09:22:58;8.35;;;3.80;;
9821;SDS011;4950;46.042;14.472;2023-07-20T09:25:25;11.05;;;4.38;;
9821;SDS011;4950;46.042;14.472;2023-07-20T09:27:53;7.30;;;3.55;;
9821;SDS011;4950;46.042;14.472;2023-07-20T09:30:21;8.20;;;3.80;;
9821;SDS011;4950;46.042;14.472;2023-07-20T09:32:53;7.75;;;3.03;;
9821;SDS011;4950;46.042;14.472;2023-07-20T09:35:21;6.13;;;3.10;;
9821;SDS011;4950;46.042;14.472;2023-07-20T09:37:49;7.95;;;2.95;;
9821;SDS011;4950;46.042;14.472;2023-07-20T09:40:18;4.30;;;2.63;;
9821;SDS011;4950;46.042;14.472;2023-07-20T09:42:45;4.53;;;2.53;;
9821;SDS011;4950;46.042;14.472;2023-07-20T09:45:13;5.63;;;2.70;;
9821;SDS011;4950;46.042;14.472;2023-07-20T09:47:39;5.65;;;2.63;;
9821;SDS011;4950;46.042;14.472;2023-07-20T09:50:08;3.90;;;2.25;;
9821;SDS011;4950;46.042;14.472;2023-07-20T09:52:40;4.78;;;2.45;;
9821;SDS011;4950;46.042;14.472;2023-07-20T09:55:09;5.07;;;2.58;;
9821;SDS011;4950;46.042;14.472;2023-07-20T09:57:37;5.15;;;2.47;;
9821;SDS011;4950;46.042;14.472;2023-07-20T10:00:05;6.93;;;3.08;;
9821;SDS011;4950;46.042;14.472;2023-07-20T10:02:41;8.63;;;3.10;;
9821;SDS011;4950;46.042;14.472;2023-07-20T10:05:11;8.27;;;3.17;;
9821;SDS011;4950;46.042;14.472;2023-07-20T10:07:40;6.80;;;2.72;;
9821;SDS011;4950;46.042;14.472;2023-07-20T10:10:10;7.22;;;2.67;;
9821;SDS011;4950;46.042;14.472;2023-07-20T10:12:37;7.75;;;2.83;;
9821;SDS011;4950;46.042;14.472;2023-07-20T10:15:10;6.25;;;2.80;;
9821;SDS011;4950;46.042;14.472;2023-07-20T10:17:40;6.20;;;2.80;;
9821;SDS011;4950;46.042;14.472;2023-07-20T10:20:16;8.82;;;3.17;;
9821;SDS011;4950;46.042;14.472;2023-07-20T10:22:46;6.88;;;3.38;;
9821;SDS011;4950;46.042;14.472;2023-07-20T10:27:41;7.68;;;3.00;;
9821;SDS011;4950;46.042;14.472;2023-07-20T10:30:08;8.27;;;2.67;;
9821;SDS011;4950;46.042;14.472;2023-07-20T10:32:36;7.70;;;3.10;;
9821;SDS011;4950;46.042;14.472;2023-07-20T10:35:11;6.72;;;3.05;;
9821;SDS011;4950;46.042;14.472;2023-07-20T10:38:01;10.20;;;3.42;;
9821;SDS011;4950;46.042;14.472;2023-07-20T10:40:29;5.75;;;2.88;;
9821;SDS011;4950;46.042;14.472;2023-07-20T10:42:58;4.97;;;2.70;;
9821;SDS011;4950;46.042;14.472;2023-07-20T10:48:15;4.45;;;2.45;;
9821;SDS011;4950;46.042;14.472;2023-07-20T10:50:44;4.65;;;2.55;;
9821;SDS011;4950;46.042;14.472;2023-07-20T10:53:14;6.55;;;2.88;;
9821;SDS011;4950;46.042;14.472;2023-07-20T10:55:42;4.90;;;2.55;;
9821;SDS011;4950;46.042;14.472;2023-07-20T10:58:11;6.32;;;2.75;;
9821;SDS011;4950;46.042;14.472;2023-07-20T11:00:54;4.63;;;2.50;;
9821;SDS011;4950;46.042;14.472;2023-07-20T11:03:27;5.20;;;2.20;;
9821;SDS011;4950;46.042;14.472;2023-07-20T11:05:58;8.60;;;3.38;;
9821;SDS011;4950;46.042;14.472;2023-07-20T11:08:42;4.28;;;2.20;;
9821;SDS011;4950;46.042;14.472;2023-07-20T11:11:22;6.05;;;2.88;;
9821;SDS011;4950;46.042;14.472;2023-07-20T11:13:56;4.10;;;2.50;;
9821;SDS011;4950;46.042;14.472;2023-07-20T11:16:36;4.85;;;2.65;;
9821;SDS011;4950;46.042;14.472;2023-07-20T11:19:05;4.75;;;2.28;;
9821;SDS011;4950;46.042;14.472;2023-07-20T11:21:36;4.70;;;2.60;;
9821;SDS011;4950;46.042;14.472;2023-07-20T11:24:06;4.32;;;2.15;;
9821;SDS011;4950;46.042;14.472;2023-07-20T11:26:41;6.35;;;2.80;;
9821;SDS011;4950;46.042;14.472;2023-07-20T11:29:11;9.13;;;2.58;;
9821;SDS011;4950;46.042;14.472;2023-07-20T11:31:39;5.38;;;2.80;;
9821;SDS011;4950;46.042;14.472;2023-07-20T11:36:36;5.10;;;2.95;;
9821;SDS011;4950;46.042;14.472;2023-07-20T11:39:02;9.57;;;3.05;;
9821;SDS011;4950;46.042;14.472;2023-07-20T11:41:31;5.93;;;2.80;;
9821;SDS011;4950;46.042;14.472;2023-07-20T11:43:59;5.82;;;2.85;;
9821;SDS011;4950;46.042;14.472;2023-07-20T11:46:27;6.32;;;2.85;;
9821;SDS011;4950;46.042;14.472;2023-07-20T11:48:56;5.15;;;2.60;;
9821;SDS011;4950;46.042;14.472;2023-07-20T11:51:24;4.72;;;2.60;;
9821;SDS011;4950;46.042;14.472;2023-07-20T11:53:52;8.70;;;3.25;;
9821;SDS011;4950;46.042;14.472;2023-07-20T11:56:19;8.20;;;2.97;;
9821;SDS011;4950;46.042;14.472;2023-07-20T11:58:47;4.05;;;2.60;;
9821;SDS011;4950;46.042;14.472;2023-07-20T12:01:14;6.55;;;3.30;;
9821;SDS011;4950;46.042;14.472;2023-07-20T12:03:43;5.65;;;2.75;;
9821;SDS011;4950;46.042;14.472;2023-07-20T12:06:10;8.23;;;3.50;;
9821;SDS011;4950;46.042;14.472;2023-07-20T12:08:41;6.85;;;3.30;;
9821;SDS011;4950;46.042;14.472;2023-07-20T12:11:08;3.55;;;2.58;;
9821;SDS011;4950;46.042;14.472;2023-07-20T12:13:35;10.20;;;3.20;;
9821;SDS011;4950;46.042;14.472;2023-07-20T12:16:14;8.38;;;3.00;;
9821;SDS011;4950;46.042;14.472;2023-07-20T12:18:42;6.05;;;2.53;;
9821;SDS011;4950;46.042;14.472;2023-07-20T12:21:09;4.53;;;2.50;;
9821;SDS011;4950;46.042;14.472;2023-07-20T12:23:37;6.68;;;2.70;;
9821;SDS011;4950;46.042;14.472;2023-07-20T12:26:06;5.95;;;2.78;;
9821;SDS011;4950;46.042;14.472;2023-07-20T12:28:35;6.60;;;2.75;;
9821;SDS011;4950;46.042;14.472;2023-07-20T12:31:05;4.93;;;2.55;;
9821;SDS011;4950;46.042;14.472;2023-07-20T12:33:33;7.22;;;3.00;;
9821;SDS011;4950;46.042;14.472;2023-07-20T12:36:00;4.13;;;2.55;;
9821;SDS011;4950;46.042;14.472;2023-07-20T12:38:27;5.28;;;2.55;;
9821;SDS011;4950;46.042;14.472;2023-07-20T12:40:55;7.15;;;2.88;;
9821;SDS011;4950;46.042;14.472;2023-07-20T12:43:23;5.93;;;2.97;;
9821;SDS011;4950;46.042;14.472;2023-07-20T12:45:49;5.07;;;2.75;;
9821;SDS011;4950;46.042;14.472;2023-07-20T12:48:16;6.03;;;2.40;;
9821;SDS011;4950;46.042;14.472;2023-07-20T12:50:44;5.53;;;3.05;;
9821;SDS011;4950;46.042;14.472;2023-07-20T12:53:11;5.55;;;3.10;;
9821;SDS011;4950;46.042;14.472;2023-07-20T12:55:38;6.78;;;2.70;;
9821;SDS011;4950;46.042;14.472;2023-07-20T12:58:05;4.72;;;2.63;;
9821;SDS011;4950;46.042;14.472;2023-07-20T13:00:31;6.25;;;3.25;;
9821;SDS011;4950;46.042;14.472;2023-07-20T13:02:58;4.93;;;2.70;;
9821;SDS011;4950;46.042;14.472;2023-07-20T13:05:25;5.75;;;2.72;;
9821;SDS011;4950;46.042;14.472;2023-07-20T13:07:53;4.43;;;3.03;;
9821;SDS011;4950;46.042;14.472;2023-07-20T13:10:19;7.47;;;3.10;;
9821;SDS011;4950;46.042;14.472;2023-07-20T13:12:46;5.60;;;3.05;;
9821;SDS011;4950;46.042;14.472;2023-07-20T13:15:13;6.03;;;3.08;;
9821;SDS011;4950;46.042;14.472;2023-07-20T13:17:39;4.95;;;2.65;;
9821;SDS011;4950;46.042;14.472;2023-07-20T13:20:06;5.10;;;2.58;;
9821;SDS011;4950;46.042;14.472;2023-07-20T13:22:35;5.05;;;2.83;;
9821;SDS011;4950;46.042;14.472;2023-07-20T13:25:04;4.03;;;2.55;;
9821;SDS011;4950;46.042;14.472;2023-07-20T13:27:32;6.88;;;2.90;;
9821;SDS011;4950;46.042;14.472;2023-07-20T13:29:59;6.50;;;3.00;;
9821;SDS011;4950;46.042;14.472;2023-07-20T13:32:31;6.85;;;3.00;;
9821;SDS011;4950;46.042;14.472;2023-07-20T13:34:58;4.85;;;2.88;;
9821;SDS011;4950;46.042;14.472;2023-07-20T13:37:24;6.32;;;3.40;;
9821;SDS011;4950;46.042;14.472;2023-07-20T13:39:52;4.85;;;2.90;;
9821;SDS011;4950;46.042;14.472;2023-07-20T13:42:20;4.75;;;2.75;;
9821;SDS011;4950;46.042;14.472;2023-07-20T13:44:47;5.70;;;3.10;;
9821;SDS011;4950;46.042;14.472;2023-07-20T13:47:13;5.72;;;3.28;;
9821;SDS011;4950;46.042;14.472;2023-07-20T13:49:40;5.45;;;2.95;;
9821;SDS011;4950;46.042;14.472;2023-07-20T13:52:07;4.93;;;2.78;;
9821;SDS011;4950;46.042;14.472;2023-07-20T13:54:34;7.85;;;2.65;;
9821;SDS011;4950;46.042;14.472;2023-07-20T13:57:00;5.05;;;2.63;;
9821;SDS011;4950;46.042;14.472;2023-07-20T13:59:29;7.18;;;3.50;;
9821;SDS011;4950;46.042;14.472;2023-07-20T14:01:55;7.45;;;2.92;;
9821;SDS011;4950;46.042;14.472;2023-07-20T14:04:22;8.23;;;3.10;;
9821;SDS011;4950;46.042;14.472;2023-07-20T14:06:49;5.50;;;3.17;;
9821;SDS011;4950;46.042;14.472;2023-07-20T14:09:16;4.07;;;2.80;;
9821;SDS011;4950;46.042;14.472;2023-07-20T14:11:43;4.47;;;2.80;;
9821;SDS011;4950;46.042;14.472;2023-07-20T14:14:10;5.65;;;3.20;;
9821;SDS011;4950;46.042;14.472;2023-07-20T14:16:38;5.32;;;3.00;;
9821;SDS011;4950;46.042;14.472;2023-07-20T14:19:05;7.47;;;3.47;;
9821;SDS011;4950;46.042;14.472;2023-07-20T14:21:34;5.25;;;3.13;;
9821;SDS011;4950;46.042;14.472;2023-07-20T14:24:01;8.13;;;3.25;;
9821;SDS011;4950;46.042;14.472;2023-07-20T14:26:28;6.43;;;3.20;;
9821;SDS011;4950;46.042;14.472;2023-07-20T14:28:54;6.60;;;3.08;;
9821;SDS011;4950;46.042;14.472;2023-07-20T14:31:21;6.38;;;3.10;;
9821;SDS011;4950;46.042;14.472;2023-07-20T14:33:49;6.80;;;3.45;;
9821;SDS011;4950;46.042;14.472;2023-07-20T14:36:16;5.75;;;2.97;;
9821;SDS011;4950;46.042;14.472;2023-07-20T14:38:43;7.18;;;3.25;;
9821;SDS011;4950;46.042;14.472;2023-07-20T14:41:09;8.30;;;3.20;;
9821;SDS011;4950;46.042;14.472;2023-07-20T14:43:37;6.30;;;3.03;;
9821;SDS011;4950;46.042;14.472;2023-07-20T14:46:03;7.93;;;3.00;;
9821;SDS011;4950;46.042;14.472;2023-07-20T14:48:30;5.68;;;3.05;;
9821;SDS011;4950;46.042;14.472;2023-07-20T14:50:58;6.95;;;2.95;;
9821;SDS011;4950;46.042;14.472;2023-07-20T14:53:25;5.05;;;2.88;;
9821;SDS011;4950;46.042;14.472;2023-07-20T14:58:24;7.07;;;3.15;;
9821;SDS011;4950;46.042;14.472;2023-07-20T15:00:50;5.15;;;2.60;;
9821;SDS011;4950;46.042;14.472;2023-07-20T15:03:17;6.53;;;2.90;;
9821;SDS011;4950;46.042;14.472;2023-07-20T15:05:44;6.75;;;3.10;;
9821;SDS011;4950;46.042;14.472;2023-07-20T15:08:12;5.03;;;2.40;;
9821;SDS011;4950;46.042;14.472;2023-07-20T15:10:38;7.88;;;3.05;;
9821;SDS011;4950;46.042;14.472;2023-07-20T15:13:05;5.05;;;2.85;;
9821;SDS011;4950;46.042;14.472;2023-07-20T15:15:32;5.82;;;2.67;;
9821;SDS011;4950;46.042;14.472;2023-07-20T15:17:58;4.50;;;2.50;;
9821;SDS011;4950;46.042;14.472;2023-07-20T15:20:25;4.63;;;2.80;;